Time;durP1;ratioP1;P1;durP2;ratioP2;P2;SDS_P1;SDS_P2;PMS_P1;PMS_P2;Temp;Humidity;BMP_temperature;BMP_pressure;BME280_temperature;BME280_humidity;BME280_pressure;Samples;Min_cycle;Max_cycle;Signal;HPM_P1;HPM_P2
2022/02/06 00:00:52;;;;;;;;;;;;;;;;;;7390546;19;1991;-42
2022/02/06 00:03:20;;;;;;;;;;;;;;;;;;7388914;19;2291;-41
2022/02/06 00:05:48;;;;;;;;;;;;;;;;;;7390608;19;2057;-41
2022/02/06 00:08:16;;;;;;;;;;;;;;;;;;7388628;19;2144;-41
2022/02/06 00:10:44;;;;;;;;;;;;;;;;;;7389819;19;2064;-41
2022/02/06 00:13:11;;;;;;;;;;;;;;;;;;7390356;19;2167;-43
2022/02/06 00:15:38;;;;;;;;;;;;;;;;;;7388496;19;2240;-41
2022/02/06 00:18:06;;;;;;;;;;;;;;;;;;7388014;19;2178;-44
2022/02/06 00:20:38;;;;;;;;;;;;;;;;;;7389804;19;2411;-41
2022/02/06 00:23:10;;;;;;;;;;;;;;;;;;7389677;19;2316;-46
2022/02/06 00:26:05;;;;;;;;;;;;;;;;;;7389355;19;2349;-44
2022/02/06 00:31:13;;;;;;;;;;;;;;;;;;7389478;19;2112;-41
2022/02/06 00:34:04;;;;;;;;;;;;;;;;;;7389147;19;2070;-40
2022/02/06 00:39:16;;;;;;;;;;;;;;;;;;7389396;19;1992;-41
2022/02/06 00:41:43;;;;;;;;;;;;;;;;;;7389280;19;2222;-41
2022/02/06 00:44:11;;;;;;;;;;;;;;;;;;7389949;19;2213;-41
2022/02/06 00:46:39;;;;;;;;;;;;;;;;;;7389501;19;2078;-40
2022/02/06 00:49:17;;;;;;;;;;;;;;;;;;7388933;19;2237;-42
2022/02/06 00:51:59;;;;;;;;;;;;;;;;;;7389850;19;2161;-42
2022/02/06 00:54:26;;;;;;;;;;;;;;;;;;7388640;19;2074;-41
2022/02/06 00:56:53;;;;;;;;;;;;;;;;;;7388705;19;2174;-41
2022/02/06 00:59:21;;;;;;;;;;;;;;;;;;7387181;19;2190;-45
2022/02/06 01:01:48;;;;;;;;;;;;;;;;;;7389323;19;2154;-43
2022/02/06 01:04:15;;;;;;;;;;;;;;;;;;7399467;19;2133;-40
2022/02/06 01:06:42;;;;;;;;;;;;;;;;;;7396414;19;2079;-41
2022/02/06 01:09:10;;;;;;;;;;;;;;;;;;7396320;19;2177;-42
2022/02/06 01:11:38;;;;;;;;;;;;;;;;;;7395809;19;2136;-43
2022/02/06 01:17:04;;;;;;;;;;;;;;;;;;7396632;19;2109;-43
2022/02/06 01:19:42;;;;;;;;;;;;;;;;;;7395543;19;2130;-41
2022/02/06 01:22:13;;;;;;;;;;;;;;;;;;7395855;19;2090;-40
2022/02/06 01:24:46;;;;;;;;;;;;;;;;;;7395453;19;2161;-41
2022/02/06 01:27:22;;;;;;;;;;;;;;;;;;7395541;19;2115;-40
2022/02/06 01:30:01;;;;;;;;;;;;;;;;;;7394430;19;2208;-46
2022/02/06 01:32:40;;;;;;;;;;;;;;;;;;7396192;19;2105;-42
2022/02/06 01:35:15;;;;;;;;;;;;;;;;;;7393825;19;2065;-45
2022/02/06 01:37:55;;;;;;;;;;;;;;;;;;7395664;19;2093;-43
2022/02/06 01:40:38;;;;;;;;;;;;;;;;;;7395279;19;2005;-43
2022/02/06 01:43:10;;;;;;;;;;;;;;;;;;7395184;19;2112;-42
2022/02/06 02:05:30;;;;;;;;;;;;;;;;;;7396704;19;2209;-41
2022/02/06 02:18:33;;;;;;;;;;;;;;;;;;7393826;19;2158;-45
2022/02/06 02:24:25;;;;;;;;;;;;;;;;;;7390761;19;2094;-47
2022/02/06 02:48:03;;;;;;;;;;;;;;;;;;7393372;19;2241;-41
2022/02/06 02:50:35;;;;;;;;;;;;;;;;;;7393027;19;2150;-41
2022/02/06 03:03:38;;;;;;;;;;;;;;;;;;7392038;19;2120;-41
2022/02/06 03:06:07;;;;;;;;;;;;;;;;;;7393118;19;2154;-40
2022/02/06 03:08:36;;;;;;;;;;;;;;;;;;7392809;19;2072;-41
2022/02/06 03:11:07;;;;;;;;;;;;;;;;;;7392913;19;2202;-43
2022/02/06 03:16:24;;;;;;;;;;;;;;;;;;7390319;19;1931;-41
2022/02/06 03:18:58;;;;;;;;;;;;;;;;;;7392540;19;2085;-43
2022/02/06 03:21:28;;;;;;;;;;;;;;;;;;7391555;19;2111;-42
2022/02/06 03:23:59;;;;;;;;;;;;;;;;;;7391942;19;2088;-41
2022/02/06 03:26:26;;;;;;;;;;;;;;;;;;7392272;19;2480;-46
2022/02/06 03:28:54;;;;;;;;;;;;;;;;;;7392052;19;2284;-42
2022/02/06 03:31:22;;;;;;;;;;;;;;;;;;7390971;19;2156;-41
2022/02/06 03:33:50;;;;;;;;;;;;;;;;;;7390799;19;2191;-42
2022/02/06 03:36:20;;;;;;;;;;;;;;;;;;7389748;19;1950;-42
2022/02/06 03:38:49;;;;;;;;;;;;;;;;;;7390362;19;2234;-47
2022/02/06 03:41:17;;;;;;;;;;;;;;;;;;7391353;19;2212;-41
2022/02/06 03:44:06;;;;;;;;;;;;;;;;;;7391585;19;2104;-43
2022/02/06 03:46:43;;;;;;;;;;;;;;;;;;7390608;19;2048;-41
2022/02/06 03:49:16;;;;;;;;;;;;;;;;;;7390482;19;2062;-39
2022/02/06 03:51:44;;;;;;;;;;;;;;;;;;7390226;19;2126;-42
2022/02/06 03:54:11;;;;;;;;;;;;;;;;;;7390508;19;2154;-45
2022/02/06 03:56:40;;;;;;;;;;;;;;;;;;7389363;19;2180;-45
2022/02/06 03:59:07;;;;;;;;;;;;;;;;;;7390923;19;2213;-42
2022/02/06 04:01:34;;;;;;;;;;;;;;;;;;7390547;19;2069;-44
2022/02/06 04:04:01;;;;;;;;;;;;;;;;;;7390198;19;2105;-44
2022/02/06 04:06:29;;;;;;;;;;;;;;;;;;7390752;19;2140;-45
2022/02/06 04:08:57;;;;;;;;;;;;;;;;;;7390503;19;2095;-42
2022/02/06 04:11:35;;;;;;;;;;;;;;;;;;7390550;19;2109;-42
2022/02/06 04:16:41;;;;;;;;;;;;;;;;;;7388620;19;1850;-44
2022/02/06 04:21:45;;;;;;;;;;;;;;;;;;7387920;19;2160;-41
2022/02/06 04:24:12;;;;;;;;;;;;;;;;;;7389861;19;2231;-43
2022/02/06 04:26:40;;;;;;;;;;;;;;;;;;7389597;19;2186;-46
2022/02/06 04:29:07;;;;;;;;;;;;;;;;;;7389716;19;2136;-42
2022/02/06 04:31:37;;;;;;;;;;;;;;;;;;7390211;19;2081;-42
2022/02/06 04:34:05;;;;;;;;;;;;;;;;;;7388921;19;2029;-40
2022/02/06 04:36:41;;;;;;;;;;;;;;;;;;7387904;19;2002;-42
2022/02/06 04:39:41;;;;;;;;;;;;;;;;;;7396536;19;2157;-43
2022/02/06 04:47:56;;;;;;;;;;;;;;;;;;7396906;19;2227;-43
2022/02/06 05:14:34;;;;;;;;;;;;;;;;;;7396127;19;2168;-41
2022/02/06 05:22:40;;;;;;;;;;;;;;;;;;7395680;19;2178;-43
2022/02/06 05:30:47;;;;;;;;;;;;;;;;;;7394327;19;2138;-44
2022/02/06 05:33:16;;;;;;;;;;;;;;;;;;7395797;19;2103;-41
2022/02/06 05:35:43;;;;;;;;;;;;;;;;;;7394860;19;2126;-44
2022/02/06 05:38:10;;;;;;;;;;;;;;;;;;7394745;19;2141;-45
2022/02/06 05:40:37;;;;;;;;;;;;;;;;;;7394231;19;2096;-43
2022/02/06 05:43:04;;;;;;;;;;;;;;;;;;7394297;19;2078;-41
2022/02/06 05:45:32;;;;;;;;;;;;;;;;;;7399061;19;2191;-44
2022/02/06 05:47:59;;;;;;;;;;;;;;;;;;7395162;19;2169;-41
2022/02/06 05:50:27;;;;;;;;;;;;;;;;;;7395154;19;2181;-44
2022/02/06 05:52:55;;;;;;;;;;;;;;;;;;7394041;19;2178;-42
2022/02/06 05:55:22;;;;;;;;;;;;;;;;;;7393312;19;2122;-41
2022/02/06 05:57:49;;;;;;;;;;;;;;;;;;7394695;19;2138;-44
2022/02/06 06:00:17;;;;;;;;;;;;;;;;;;7394414;19;2217;-46
2022/02/06 06:02:44;;;;;;;;;;;;;;;;;;7394187;19;2128;-45
2022/02/06 06:05:11;;;;;;;;;;;;;;;;;;7394375;19;2151;-42
2022/02/06 06:07:42;;;;;;;;;;;;;;;;;;7394540;19;2156;-41
2022/02/06 06:10:10;;;;;;;;;;;;;;;;;;7394470;19;2052;-42
2022/02/06 06:12:37;;;;;;;;;;;;;;;;;;7394554;19;2224;-41
2022/02/06 06:15:06;;;;;;;;;;;;;;;;;;7394363;19;2158;-45
2022/02/06 06:17:37;;;;;;;;;;;;;;;;;;7391595;19;2232;-46
2022/02/06 06:20:09;;;;;;;;;;;;;;;;;;7393243;19;2233;-43
2022/02/06 06:22:36;;;;;;;;;;;;;;;;;;7393400;19;2153;-48
2022/02/06 06:25:05;;;;;;;;;;;;;;;;;;7393590;19;2225;-41
2022/02/06 06:27:32;;;;;;;;;;;;;;;;;;7393324;19;2238;-42
2022/02/06 06:30:00;;;;;;;;;;;;;;;;;;7392758;19;5180;-40
2022/02/06 06:32:27;;;;;;;;;;;;;;;;;;7393416;19;2166;-42
2022/02/06 06:34:55;;;;;;;;;;;;;;;;;;7393159;19;2139;-42
2022/02/06 06:37:22;;;;;;;;;;;;;;;;;;7391144;19;2107;-43
2022/02/06 06:39:49;;;;;;;;;;;;;;;;;;7393444;19;2162;-47
2022/02/06 06:42:20;;;;;;;;;;;;;;;;;;7392435;19;2188;-40
2022/02/06 06:44:47;;;;;;;;;;;;;;;;;;7394965;19;2189;-45
2022/02/06 06:47:15;;;;;;;;;;;;;;;;;;7392905;19;2227;-42
2022/02/06 06:49:42;;;;;;;;;;;;;;;;;;7394833;19;2256;-46
2022/02/06 06:52:09;;;;;;;;;;;;;;;;;;7393397;19;2192;-42
2022/02/06 06:54:43;;;;;;;;;;;;;;;;;;7392331;19;2107;-42
2022/02/06 06:57:24;;;;;;;;;;;;;;;;;;7390476;19;2139;-43
2022/02/06 07:04:49;;;;;;;;;;;;;;;;;;7391947;19;2086;-41
2022/02/06 07:07:17;;;;;;;;;;;;;;;;;;7392403;19;2318;-41
2022/02/06 07:09:44;;;;;;;;;;;;;;;;;;7391852;19;1957;-41
2022/02/06 07:12:13;;;;;;;;;;;;;;;;;;7391744;19;2118;-42
2022/02/06 07:14:44;;;;;;;;;;;;;;;;;;7392173;19;1966;-41
2022/02/06 07:17:12;;;;;;;;;;;;;;;;;;7390355;19;2434;-42
2022/02/06 07:19:39;;;;;;;;;;;;;;;;;;7392370;19;2090;-42
2022/02/06 07:22:13;;;;;;;;;;;;;;;;;;7391727;19;2025;-39
2022/02/06 07:24:40;;;;;;;;;;;;;;;;;;7391552;19;2159;-43
2022/02/06 07:27:30;;;;;;;;;;;;;;;;;;7392073;19;2164;-41
2022/02/06 07:30:03;;;;;;;;;;;;;;;;;;7391805;19;2061;-44
2022/02/06 07:32:33;;;;;;;;;;;;;;;;;;7392182;19;2090;-43
2022/02/06 07:35:01;;;;;;;;;;;;;;;;;;7391573;19;2126;-42
2022/02/06 07:37:28;;;;;;;;;;;;;;;;;;7389477;19;2190;-42
2022/02/06 07:39:55;;;;;;;;;;;;;;;;;;7390886;19;2252;-40
2022/02/06 07:42:23;;;;;;;;;;;;;;;;;;7391168;19;2175;-41
2022/02/06 07:44:57;;;;;;;;;;;;;;;;;;7393021;19;2197;-40
2022/02/06 07:47:24;;;;;;;;;;;;;;;;;;7390616;19;2180;-43
2022/02/06 07:49:53;;;;;;;;;;;;;;;;;;7391530;19;2167;-41
2022/02/06 07:52:22;;;;;;;;;;;;;;;;;;7390519;19;2155;-45
2022/02/06 07:54:50;;;;;;;;;;;;;;;;;;7390423;19;2222;-43
2022/02/06 07:57:17;;;;;;;;;;;;;;;;;;7389123;19;1995;-40
2022/02/06 07:59:44;;;;;;;;;;;;;;;;;;7390606;19;2092;-41
2022/02/06 08:02:12;;;;;;;;;;;;;;;;;;7390554;19;2087;-45
2022/02/06 08:04:39;;;;;;;;;;;;;;;;;;7390558;19;2195;-40
2022/02/06 08:07:06;;;;;;;;;;;;;;;;;;7390403;19;2137;-42
2022/02/06 08:09:56;;;;;;;;;;;;;;;;;;7390101;19;2128;-41
2022/02/06 08:12:29;;;;;;;;;;;;;;;;;;7388022;19;2148;-42
2022/02/06 08:15:00;;;;;;;;;;;;;;;;;;7390114;19;2100;-41
2022/02/06 08:17:28;;;;;;;;;;;;;;;;;;7388375;19;2237;-43
2022/02/06 08:19:57;;;;;;;;;;;;;;;;;;7389512;19;2204;-41
2022/02/06 08:22:25;;;;;;;;;;;;;;;;;;7388913;19;2163;-41
2022/02/06 08:24:53;;;;;;;;;;;;;;;;;;7389891;19;2156;-41
2022/02/06 08:27:21;;;;;;;;;;;;;;;;;;7389594;19;2084;-47
2022/02/06 08:29:49;;;;;;;;;;;;;;;;;;7389810;19;2164;-44
2022/02/06 08:32:17;;;;;;;;;;;;;;;;;;7389312;19;2246;-41
2022/02/06 08:34:46;;;;;;;;;;;;;;;;;;7389658;19;2498;-41
2022/02/06 08:37:14;;;;;;;;;;;;;;;;;;7388149;19;2260;-44
2022/02/06 08:39:42;;;;;;;;;;;;;;;;;;7388868;19;2240;-42
2022/02/06 08:42:10;;;;;;;;;;;;;;;;;;7388025;19;2099;-45
2022/02/06 08:44:38;;;;;;;;;;;;;;;;;;7391461;19;2159;-45
2022/02/06 08:47:06;;;;;;;;;;;;;;;;;;7389252;19;2189;-42
2022/02/06 08:49:33;;;;;;;;;;;;;;;;;;7389587;19;2140;-46
2022/02/06 08:52:00;;;;;;;;;;;;;;;;;;7389504;19;2157;-42
2022/02/06 08:54:31;;;;;;;;;;;;;;;;;;7389160;19;2128;-50
2022/02/06 09:00:08;;;;;;;;;;;;;;;;;;7386276;19;2176;-49
2022/02/06 09:02:36;;;;;;;;;;;;;;;;;;7388727;19;2201;-49
2022/02/06 09:05:03;;;;;;;;;;;;;;;;;;7388994;19;2166;-42
2022/02/06 09:07:30;;;;;;;;;;;;;;;;;;7389890;19;2140;-48
2022/02/06 09:10:02;;;;;;;;;;;;;;;;;;7389451;19;2166;-44
2022/02/06 09:16:09;;;;;;;;;;;;;;;;;;7424653;19;1658;-41
2022/02/06 09:18:36;;;;;;;;;;;;;;;;;;7426292;19;988;-41
2022/02/06 09:21:03;;;;;;;;;;;;;;;;;;7426698;19;898;-48
2022/02/06 09:23:30;;;;;;;;;;;;;;;;;;7425231;19;917;-43
2022/02/06 09:25:58;;;;;;;;;;;;;;;;;;7424641;19;1165;-41
2022/02/06 09:28:25;;;;;;;;;;;;;;;;;;7425640;19;828;-49
2022/02/06 09:30:52;;;;;;;;;;;;;;;;;;7426747;19;961;-43
2022/02/06 09:35:47;;;;;;;;;;;;;;;;;;7422062;19;1855;-46
2022/02/06 09:38:14;;;;;;;;;;;;;;;;;;7425406;19;913;-44
2022/02/06 09:40:44;;;;;;;;;;;;;;;;;;7425410;19;1013;-41
2022/02/06 09:43:12;;;;;;;;;;;;;;;;;;7400617;19;11579;-40
2022/02/06 09:45:41;;;;;;;;;;;;;;;;;;7424896;19;982;-42
2022/02/06 09:48:12;;;;;;;;;;;;;;;;;;7425403;19;931;-41
2022/02/06 09:50:44;;;;;;;;;;;;;;;;;;7425192;19;1038;-49
2022/02/06 09:53:11;;;;;;;;;;;;;;;;;;7422652;19;1189;-42
2022/02/06 09:55:39;;;;;;;;;;;;;;;;;;7421516;19;1860;-40
2022/02/06 09:58:28;;;;;;;;;;;;;;;;;;7425996;19;1342;-45
2022/02/06 10:00:56;;;;;;;;;;;;;;;;;;7423070;19;880;-40
2022/02/06 10:03:23;;;;;;;;;;;;;;;;;;7424943;19;977;-46
2022/02/06 10:05:51;;;;;;;;;;;;;;;;;;7424354;19;923;-41
2022/02/06 10:08:28;;;;;;;;;;;;;;;;;;7423879;19;1037;-41
2022/02/06 10:11:02;;;;;;;;;;;;;;;;;;7422864;19;968;-44
2022/02/06 10:13:34;;;;;;;;;;;;;;;;;;7424610;19;870;-43
2022/02/06 10:16:03;;;;;;;;;;;;;;;;;;7420888;19;1853;-40
2022/02/06 10:18:31;;;;;;;;;;;;;;;;;;7424109;19;1014;-44
2022/02/06 10:20:58;;;;;;;;;;;;;;;;;;7423545;19;959;-40
2022/02/06 10:23:36;;;;;;;;;;;;;;;;;;7424088;19;1005;-44
2022/02/06 10:26:09;;;;;;;;;;;;;;;;;;7411805;19;905;-46
2022/02/06 10:28:44;;;;;;;;;;;;;;;;;;7395467;19;1014;-42
2022/02/06 10:31:12;;;;;;;;;;;;;;;;;;7394727;19;879;-41
2022/02/06 10:33:44;;;;;;;;;;;;;;;;;;7395271;19;875;-43
2022/02/06 10:36:12;;;;;;;;;;;;;;;;;;7392156;19;1842;-44
2022/02/06 10:38:39;;;;;;;;;;;;;;;;;;7395521;19;926;-42
2022/02/06 10:41:07;;;;;;;;;;;;;;;;;;7394328;19;1042;-41
2022/02/06 10:43:36;;;;;;;;;;;;;;;;;;7394590;19;1033;-41
2022/02/06 10:46:12;;;;;;;;;;;;;;;;;;7393013;19;908;-41
2022/02/06 10:48:53;;;;;;;;;;;;;;;;;;7394652;19;878;-45
2022/02/06 10:51:40;;;;;;;;;;;;;;;;;;7394828;19;938;-42
2022/02/06 10:54:09;;;;;;;;;;;;;;;;;;7394455;19;1963;-41
2022/02/06 10:56:40;;;;;;;;;;;;;;;;;;7395171;19;862;-44
2022/02/06 10:59:07;;;;;;;;;;;;;;;;;;7394777;19;872;-42
2022/02/06 11:01:39;;;;;;;;;;;;;;;;;;7393995;19;951;-46
2022/02/06 11:04:29;;;;;;;;;;;;;;;;;;7393691;19;967;-44
2022/02/06 11:07:19;;;;;;;;;;;;;;;;;;7394321;19;942;-43
2022/02/06 11:09:46;;;;;;;;;;;;;;;;;;7394346;19;927;-43
2022/02/06 11:12:17;;;;;;;;;;;;;;;;;;7393334;19;1174;-49
2022/02/06 11:14:47;;;;;;;;;;;;;;;;;;7392935;19;1849;-41
2022/02/06 11:17:19;;;;;;;;;;;;;;;;;;7390803;19;967;-46
2022/02/06 11:20:06;;;;;;;;;;;;;;;;;;7391617;19;1075;-47
2022/02/06 11:22:34;;;;;;;;;;;;;;;;;;7392188;19;873;-45
2022/02/06 11:25:04;;;;;;;;;;;;;;;;;;7392133;19;823;-45
2022/02/06 11:27:32;;;;;;;;;;;;;;;;;;7393578;19;947;-46
2022/02/06 11:30:01;;;;;;;;;;;;;;;;;;7393419;19;1121;-44
2022/02/06 11:32:28;;;;;;;;;;;;;;;;;;7393525;19;856;-46
2022/02/06 11:34:57;;;;;;;;;;;;;;;;;;7391133;19;1847;-40
2022/02/06 11:45:59;;;;;;;;;;;;;;;;;;7397221;19;1097;-45
2022/02/06 11:48:29;;;;;;;;;;;;;;;;;;7392414;19;930;-45
2022/02/06 11:50:56;;;;;;;;;;;;;;;;;;7392449;19;959;-42
2022/02/06 11:53:28;;;;;;;;;;;;;;;;;;7391766;19;944;-43
2022/02/06 11:55:57;;;;;;;;;;;;;;;;;;7390864;19;1842;-44
2022/02/06 11:58:35;;;;;;;;;;;;;;;;;;7392723;19;896;-42
2022/02/06 12:01:05;;;;;;;;;;;;;;;;;;7391902;19;1078;-41
2022/02/06 12:03:48;;;;;;;;;;;;;;;;;;7392544;19;919;-44
2022/02/06 12:06:15;;;;;;;;;;;;;;;;;;7392817;19;916;-44
2022/02/06 12:08:43;;;;;;;;;;;;;;;;;;7392973;19;926;-43
2022/02/06 12:11:12;;;;;;;;;;;;;;;;;;7392025;19;928;-47
2022/02/06 12:13:39;;;;;;;;;;;;;;;;;;7393039;19;863;-48
2022/02/06 12:16:07;;;;;;;;;;;;;;;;;;7390454;19;1846;-45
2022/02/06 12:18:36;;;;;;;;;;;;;;;;;;7391614;19;1226;-42
2022/02/06 12:21:10;;;;;;;;;;;;;;;;;;7391521;19;1301;-49
2022/02/06 12:23:37;;;;;;;;;;;;;;;;;;7390255;19;884;-44
2022/02/06 12:26:23;;;;;;;;;;;;;;;;;;7391584;19;870;-41
2022/02/06 12:28:52;;;;;;;;;;;;;;;;;;7391409;19;962;-43
2022/02/06 12:31:33;;;;;;;;;;;;;;;;;;7390455;19;1030;-41
2022/02/06 12:39:25;;;;;;;;;;;;;;;;;;7390870;19;1022;-44
2022/02/06 12:41:54;;;;;;;;;;;;;;;;;;7391002;19;955;-44
2022/02/06 12:44:23;;;;;;;;;;;;;;;;;;7391979;19;1181;-44
2022/02/06 12:46:51;;;;;;;;;;;;;;;;;;7390504;19;898;-42
2022/02/06 12:49:26;;;;;;;;;;;;;;;;;;7390609;19;941;-47
2022/02/06 12:51:54;;;;;;;;;;;;;;;;;;7390532;19;915;-44
2022/02/06 12:54:22;;;;;;;;;;;;;;;;;;7390575;19;939;-45
2022/02/06 12:56:53;;;;;;;;;;;;;;;;;;7389019;19;1836;-41
2022/02/06 12:59:21;;;;;;;;;;;;;;;;;;7389980;19;986;-42
2022/02/06 13:01:50;;;;;;;;;;;;;;;;;;7390076;19;1002;-42
2022/02/06 13:04:18;;;;;;;;;;;;;;;;;;7390218;19;986;-41
2022/02/06 13:06:49;;;;;;;;;;;;;;;;;;7390499;19;899;-40
2022/02/06 13:09:21;;;;;;;;;;;;;;;;;;7390986;19;884;-41
2022/02/06 13:11:56;;;;;;;;;;;;;;;;;;7389707;19;950;-42
2022/02/06 13:14:57;;;;;;;;;;;;;;;;;;7389113;19;989;-45
2022/02/06 13:38:52;;;;;;;;;;;;;;;;;;7390006;19;879;-43
2022/02/06 13:41:24;;;;;;;;;;;;;;;;;;7389532;19;912;-41
2022/02/06 13:43:55;;;;;;;;;;;;;;;;;;7390434;19;1141;-41
2022/02/06 13:46:28;;;;;;;;;;;;;;;;;;7388758;19;907;-41
2022/02/06 13:48:56;;;;;;;;;;;;;;;;;;7388596;19;1011;-45
2022/02/06 13:51:24;;;;;;;;;;;;;;;;;;7388790;19;966;-41
2022/02/06 13:53:52;;;;;;;;;;;;;;;;;;7388504;19;912;-43
2022/02/06 13:56:19;;;;;;;;;;;;;;;;;;7386326;19;1850;-41
2022/02/06 13:59:05;;;;;;;;;;;;;;;;;;7388775;19;967;-46
2022/02/06 14:01:53;;;;;;;;;;;;;;;;;;7390879;19;886;-41
2022/02/06 14:04:30;;;;;;;;;;;;;;;;;;7395556;19;892;-42
2022/02/06 14:07:14;;;;;;;;;;;;;;;;;;7394346;19;1021;-42
2022/02/06 14:12:16;;;;;;;;;;;;;;;;;;7396632;19;943;-42
2022/02/06 14:14:48;;;;;;;;;;;;;;;;;;7394475;19;1055;-41
2022/02/06 14:17:33;;;;;;;;;;;;;;;;;;7395096;19;909;-42
2022/02/06 14:20:24;;;;;;;;;;;;;;;;;;7394998;19;962;-40
2022/02/06 14:22:53;;;;;;;;;;;;;;;;;;7395097;19;1281;-42
2022/02/06 14:25:28;;;;;;;;;;;;;;;;;;7395055;19;872;-41
2022/02/06 14:27:56;;;;;;;;;;;;;;;;;;7394243;19;1047;-41
2022/02/06 14:30:25;;;;;;;;;;;;;;;;;;7392314;19;1140;-40
2022/02/06 14:33:03;;;;;;;;;;;;;;;;;;7394735;19;910;-40
2022/02/06 14:35:37;;;;;;;;;;;;;;;;;;7393770;19;1871;-41
2022/02/06 14:38:06;;;;;;;;;;;;;;;;;;7393671;19;922;-39
2022/02/06 14:43:30;;;;;;;;;;;;;;;;;;7394662;19;978;-44
2022/02/06 14:45:58;;;;;;;;;;;;;;;;;;7398844;19;1164;-46
2022/02/06 14:48:26;;;;;;;;;;;;;;;;;;7393362;19;1030;-41
2022/02/06 14:50:53;;;;;;;;;;;;;;;;;;7393551;19;930;-41
2022/02/06 14:53:21;;;;;;;;;;;;;;;;;;7394986;19;894;-41
2022/02/06 14:55:50;;;;;;;;;;;;;;;;;;7391877;19;1852;-39
2022/02/06 14:58:19;;;;;;;;;;;;;;;;;;7392213;19;911;-44
2022/02/06 15:00:47;;;;;;;;;;;;;;;;;;7393377;19;921;-41
2022/02/06 15:03:14;;;;;;;;;;;;;;;;;;7393834;19;859;-41
2022/02/06 15:05:41;;;;;;;;;;;;;;;;;;7393854;19;930;-40
2022/02/06 15:08:10;;;;;;;;;;;;;;;;;;7392965;19;935;-41
2022/02/06 15:10:39;;;;;;;;;;;;;;;;;;7393241;19;974;-42
2022/02/06 15:13:09;;;;;;;;;;;;;;;;;;7393201;19;914;-43
2022/02/06 15:15:41;;;;;;;;;;;;;;;;;;7389443;19;1919;-40
2022/02/06 15:20:52;;;;;;;;;;;;;;;;;;7392260;19;970;-48
2022/02/06 15:23:21;;;;;;;;;;;;;;;;;;7392841;19;866;-48
2022/02/06 15:25:49;;;;;;;;;;;;;;;;;;7392563;19;940;-49
2022/02/06 15:28:16;;;;;;;;;;;;;;;;;;7392502;19;975;-44
2022/02/06 15:30:43;;;;;;;;;;;;;;;;;;7392570;19;855;-42
2022/02/06 15:33:10;;;;;;;;;;;;;;;;;;7392196;19;1201;-42
2022/02/06 15:35:38;;;;;;;;;;;;;;;;;;7392519;19;1834;-41
2022/02/06 15:38:07;;;;;;;;;;;;;;;;;;7390797;19;1141;-43
2022/02/06 15:40:38;;;;;;;;;;;;;;;;;;7392559;19;907;-43
2022/02/06 15:43:06;;;;;;;;;;;;;;;;;;7392306;19;959;-46
2022/02/06 15:45:33;;;;;;;;;;;;;;;;;;7395754;19;1113;-45
2022/02/06 15:48:01;;;;;;;;;;;;;;;;;;7392028;19;984;-44
2022/02/06 15:50:28;;;;;;;;;;;;;;;;;;7391811;19;884;-41
2022/02/06 15:52:55;;;;;;;;;;;;;;;;;;7392646;19;955;-43
2022/02/06 15:55:22;;;;;;;;;;;;;;;;;;7391760;19;1838;-40
2022/02/06 15:57:50;;;;;;;;;;;;;;;;;;7390987;19;1018;-46
2022/02/06 16:00:17;;;;;;;;;;;;;;;;;;7392030;19;871;-45
2022/02/06 16:02:45;;;;;;;;;;;;;;;;;;7391797;19;942;-44
2022/02/06 16:05:12;;;;;;;;;;;;;;;;;;7391816;19;914;-43
2022/02/06 16:07:41;;;;;;;;;;;;;;;;;;7391695;19;960;-41
2022/02/06 16:10:10;;;;;;;;;;;;;;;;;;7391735;19;881;-41
2022/02/06 16:12:38;;;;;;;;;;;;;;;;;;7391176;19;930;-42
2022/02/06 16:15:06;;;;;;;;;;;;;;;;;;7390233;19;1290;-41
2022/02/06 16:17:33;;;;;;;;;;;;;;;;;;7389401;19;1850;-41
2022/02/06 16:20:04;;;;;;;;;;;;;;;;;;7391196;19;922;-40
2022/02/06 16:22:33;;;;;;;;;;;;;;;;;;7390776;19;886;-46
2022/02/06 16:25:03;;;;;;;;;;;;;;;;;;7389287;19;927;-43
2022/02/06 16:27:31;;;;;;;;;;;;;;;;;;7389171;19;889;-45
2022/02/06 16:29:59;;;;;;;;;;;;;;;;;;7390967;19;927;-41
2022/02/06 16:32:28;;;;;;;;;;;;;;;;;;7390949;19;951;-43
2022/02/06 16:34:55;;;;;;;;;;;;;;;;;;7391042;19;906;-41
2022/02/06 16:37:23;;;;;;;;;;;;;;;;;;7389157;19;1860;-41
2022/02/06 16:39:50;;;;;;;;;;;;;;;;;;7390602;19;847;-47
2022/02/06 16:42:19;;;;;;;;;;;;;;;;;;7390469;19;1018;-41
2022/02/06 16:44:48;;;;;;;;;;;;;;;;;;7392890;19;1164;-42
2022/02/06 16:47:15;;;;;;;;;;;;;;;;;;7390049;19;922;-42
2022/02/06 16:49:43;;;;;;;;;;;;;;;;;;7389807;19;857;-40
2022/02/06 16:52:11;;;;;;;;;;;;;;;;;;7388543;19;895;-40
2022/02/06 16:54:39;;;;;;;;;;;;;;;;;;7390209;19;930;-43
2022/02/06 16:57:06;;;;;;;;;;;;;;;;;;7389519;19;1854;-41
2022/02/06 16:59:34;;;;;;;;;;;;;;;;;;7390181;19;1006;-43
2022/02/06 17:02:02;;;;;;;;;;;;;;;;;;7389694;19;943;-42
2022/02/06 17:04:29;;;;;;;;;;;;;;;;;;7389887;19;930;-40
2022/02/06 17:06:57;;;;;;;;;;;;;;;;;;7389524;19;943;-41
2022/02/06 17:09:24;;;;;;;;;;;;;;;;;;7388928;19;955;-42
2022/02/06 17:11:53;;;;;;;;;;;;;;;;;;7390010;19;895;-44
2022/02/06 17:14:20;;;;;;;;;;;;;;;;;;7388926;19;1306;-43
2022/02/06 17:16:48;;;;;;;;;;;;;;;;;;7388735;19;1842;-43
2022/02/06 17:19:16;;;;;;;;;;;;;;;;;;7389004;19;907;-42
2022/02/06 17:21:45;;;;;;;;;;;;;;;;;;7388637;19;970;-43
2022/02/06 17:24:13;;;;;;;;;;;;;;;;;;7389330;19;961;-45
2022/02/06 17:26:41;;;;;;;;;;;;;;;;;;7389518;19;943;-40
2022/02/06 17:29:09;;;;;;;;;;;;;;;;;;7388542;19;938;-40
2022/02/06 17:31:36;;;;;;;;;;;;;;;;;;7388983;19;910;-41
2022/02/06 17:34:03;;;;;;;;;;;;;;;;;;7389026;19;975;-44
2022/02/06 17:36:31;;;;;;;;;;;;;;;;;;7391261;19;1852;-46
2022/02/06 17:38:58;;;;;;;;;;;;;;;;;;7397103;19;920;-41
2022/02/06 17:41:25;;;;;;;;;;;;;;;;;;7396419;19;1029;-42
2022/02/06 17:43:52;;;;;;;;;;;;;;;;;;7397184;19;1108;-43
2022/02/06 17:46:21;;;;;;;;;;;;;;;;;;7395982;19;885;-42
2022/02/06 17:48:49;;;;;;;;;;;;;;;;;;7396330;19;854;-46
2022/02/06 17:51:17;;;;;;;;;;;;;;;;;;7396567;19;859;-41
2022/02/06 17:53:48;;;;;;;;;;;;;;;;;;7396757;19;941;-45
2022/02/06 17:56:16;;;;;;;;;;;;;;;;;;7395128;19;1846;-43
2022/02/06 17:58:44;;;;;;;;;;;;;;;;;;7393922;19;1233;-45
2022/02/06 18:01:11;;;;;;;;;;;;;;;;;;7395381;19;894;-41
2022/02/06 18:03:39;;;;;;;;;;;;;;;;;;7395677;19;1105;-45
2022/02/06 18:06:06;;;;;;;;;;;;;;;;;;7396017;19;863;-42
2022/02/06 18:08:35;;;;;;;;;;;;;;;;;;7396152;19;1026;-46
2022/02/06 18:11:08;;;;;;;;;;;;;;;;;;7395838;19;922;-47
2022/02/06 18:13:35;;;;;;;;;;;;;;;;;;7395191;19;1002;-46
2022/02/06 18:16:03;;;;;;;;;;;;;;;;;;7393340;19;1849;-41
2022/02/06 18:18:31;;;;;;;;;;;;;;;;;;7394769;19;979;-45
2022/02/06 18:20:58;;;;;;;;;;;;;;;;;;7395185;19;1303;-41
2022/02/06 18:23:26;;;;;;;;;;;;;;;;;;7398170;19;1176;-46
2022/02/06 18:25:53;;;;;;;;;;;;;;;;;;7394326;19;1030;-43
2022/02/06 18:28:20;;;;;;;;;;;;;;;;;;7397895;19;918;-48
2022/02/06 18:30:48;;;;;;;;;;;;;;;;;;7395401;19;883;-41
2022/02/06 18:33:15;;;;;;;;;;;;;;;;;;7394843;19;914;-48
2022/02/06 18:35:42;;;;;;;;;;;;;;;;;;7394224;19;1062;-42
2022/02/06 18:38:10;;;;;;;;;;;;;;;;;;7392458;19;1846;-48
2022/02/06 18:40:39;;;;;;;;;;;;;;;;;;7394549;19;879;-44
2022/02/06 18:43:07;;;;;;;;;;;;;;;;;;7393944;19;946;-44
2022/02/06 18:45:35;;;;;;;;;;;;;;;;;;7398061;19;1082;-44
2022/02/06 18:48:03;;;;;;;;;;;;;;;;;;7393782;19;954;-40
2022/02/06 18:50:32;;;;;;;;;;;;;;;;;;7395229;19;923;-44
2022/02/06 18:52:59;;;;;;;;;;;;;;;;;;7394863;19;935;-47
2022/02/06 18:55:28;;;;;;;;;;;;;;;;;;7394613;19;1022;-42
2022/02/06 18:57:55;;;;;;;;;;;;;;;;;;7392642;19;1846;-44
2022/02/06 19:00:22;;;;;;;;;;;;;;;;;;7394741;19;943;-42
2022/02/06 19:02:50;;;;;;;;;;;;;;;;;;7395194;19;902;-46
2022/02/06 19:05:18;;;;;;;;;;;;;;;;;;7394384;19;951;-43
2022/02/06 19:07:45;;;;;;;;;;;;;;;;;;7394196;19;946;-42
2022/02/06 19:10:12;;;;;;;;;;;;;;;;;;7394745;19;876;-41
2022/02/06 19:12:39;;;;;;;;;;;;;;;;;;7394850;19;883;-41
2022/02/06 19:15:07;;;;;;;;;;;;;;;;;;7392215;19;1067;-42
2022/02/06 19:17:34;;;;;;;;;;;;;;;;;;7393258;19;1861;-43
2022/02/06 19:20:02;;;;;;;;;;;;;;;;;;7394223;19;935;-40
2022/02/06 19:22:29;;;;;;;;;;;;;;;;;;7394306;19;1192;-42
2022/02/06 19:24:56;;;;;;;;;;;;;;;;;;7394209;19;903;-41
2022/02/06 19:27:24;;;;;;;;;;;;;;;;;;7393755;19;1002;-41
2022/02/06 19:29:51;;;;;;;;;;;;;;;;;;7394068;19;899;-42
2022/02/06 19:32:18;;;;;;;;;;;;;;;;;;7393223;19;863;-41
2022/02/06 19:34:50;;;;;;;;;;;;;;;;;;7391647;19;1272;-43
2022/02/06 19:37:17;;;;;;;;;;;;;;;;;;7391830;19;1848;-44
2022/02/06 19:39:47;;;;;;;;;;;;;;;;;;7393641;19;983;-42
2022/02/06 19:42:16;;;;;;;;;;;;;;;;;;7392893;19;864;-42
2022/02/06 19:44:45;;;;;;;;;;;;;;;;;;7395630;19;1207;-42
2022/02/06 19:47:13;;;;;;;;;;;;;;;;;;7393114;19;978;-42
2022/02/06 19:49:41;;;;;;;;;;;;;;;;;;7393420;19;923;-42
2022/02/06 19:52:08;;;;;;;;;;;;;;;;;;7392887;19;934;-42
2022/02/06 19:54:36;;;;;;;;;;;;;;;;;;7396125;19;1185;-41
2022/02/06 19:57:04;;;;;;;;;;;;;;;;;;7391792;19;1868;-41
2022/02/06 19:59:31;;;;;;;;;;;;;;;;;;7391533;19;930;-41
2022/02/06 20:02:00;;;;;;;;;;;;;;;;;;7393396;19;943;-51
2022/02/06 20:04:28;;;;;;;;;;;;;;;;;;7393766;19;966;-42
2022/02/06 20:06:56;;;;;;;;;;;;;;;;;;7392663;19;1229;-44
2022/02/06 20:09:24;;;;;;;;;;;;;;;;;;7392574;19;1092;-44
2022/02/06 20:11:52;;;;;;;;;;;;;;;;;;7392777;19;942;-42
2022/02/06 20:14:19;;;;;;;;;;;;;;;;;;7391642;19;1063;-42
2022/02/06 20:16:46;;;;;;;;;;;;;;;;;;7392283;19;1856;-45
2022/02/06 20:19:14;;;;;;;;;;;;;;;;;;7392241;19;942;-41
2022/02/06 20:21:42;;;;;;;;;;;;;;;;;;7392113;19;922;-49
2022/02/06 20:24:11;;;;;;;;;;;;;;;;;;7391809;19;991;-42
2022/02/06 20:26:39;;;;;;;;;;;;;;;;;;7392441;19;883;-43
2022/02/06 20:29:06;;;;;;;;;;;;;;;;;;7391699;19;1029;-41